Terminal Aerodrome Forecast
Issued by NWS

Home | Current Version | Previous Version | Text Only | Print | Product List | Glossary On
Versions: 1 2 3 4 5 6 7 8 9 10 11 12 13 14 15 16 17 18 19 20 21
000
FTUS43 KGRR 301700 RRA
TAFMKG
TAF
KMKG 301750Z 3018/0118 01005KT P6SM OVC025
     FM010600 05003KT P6SM OVC015
     FM011400 13007KT P6SM BKN025=

USA.gov is the U.S. government's official web portal to all federal, state and local government web resources and services.